Latest Weather Observations for Nowra

IDN60901

Issued at 4:41 am EST Monday 24 July 2017 (issued every 10 minutes, with the page automatically refreshed every 10 minutes)

About weather observations | Map of Canberra area stations | Latest observations for Canberra area | Other Formats
Station Details ID: 068072 Name: NOWRA RAN AIR STATION AWS Lat: -34.95 Lon: 150.54 Height: 109.0 m
Data from the previous 72 hours. | See also: Recent months at Nowra
Date/Time
EST
Temp
°C
App
Temp
°C
Dew
Point
°C
Rel
Hum
%
Delta-T
°C
Wind Press
QNH
hPa
Press
MSL
hPa
Rain since
9am
mm
Dir  Spd
km/h
Gust
km/h
Spd
kts
Gust
kts
24/04:30am 7.5 5.6 3.0 73 1.9 W 2 7 1 4 1015.7 1015.7 0.0
24/04:00am 8.7 6.4 2.9 67 2.5 WSW 4 9 2 5 1015.7 1015.7 0.0
24/03:30am 10.3 7.8 3.8 64 2.9 SW 6 11 3 6 1015.4 1015.4 0.0
24/03:00am 12.3 8.3 3.0 53 4.1 WSW 13 22 7 12 1015.3 1015.3 0.0
24/02:30am 12.2 9.9 2.6 52 4.2 ESE 4 9 2 5 1015.3 1015.3 0.0
24/02:00am 11.2 7.7 1.5 51 4.1 ESE 9 15 5 8 1015.1 1015.1 0.0
24/01:30am 13.7 10.7 2.3 46 5.0 W 7 17 4 9 1014.7 1014.7 0.0
24/01:00am 14.3 9.4 1.9 43 5.4 WNW 17 32 9 17 1014.4 1014.4 0.0
24/12:30am 14.0 8.7 2.0 44 5.3 WNW 19 26 10 14 1014.4 1014.4 0.0
24/12:00am 14.5 7.8 1.4 41 5.7 WNW 26 35 14 19 1014.5 1014.5 0.0
 
Date/Time
EST
Temp
°C
App
Temp
°C
Dew
Point
°C
Rel
Hum
%
Delta-T
°C
Wind Press
QNH
hPa
Press
MSL
hPa
Rain since
9am
mm
Dir  Spd
km/h
Gust
km/h
Spd
kts
Gust
kts
23/11:30pm 14.3 8.9 1.2 41 5.7 WNW 19 30 10 16 1014.5 1014.5 0.0
23/11:00pm 14.0 8.9 0.6 40 5.7 W 17 30 9 16 1014.5 1014.5 0.0
23/10:33pm 14.7 7.5 0.5 38 6.1 WNW 28 46 15 25 1014.0 1014.0 0.0
23/10:30pm 14.9 7.3 0.4 37 6.2 WNW 30 46 16 25 1014.0 1014.0 0.0
23/10:18pm 15.0 6.8 0.4 37 6.3 WNW 33 52 18 28 1014.0 1014.0 0.0
23/10:00pm 15.0 7.0 0.1 36 6.3 WNW 32 46 17 25 1013.8 1013.8 0.0
23/09:30pm 15.6 6.2 0.2 35 6.6 WNW 39 56 21 30 1013.6 1013.6 0.0
23/09:03pm 15.8 7.5 0.0 34 6.8 WNW 33 52 18 28 1013.2 1013.2 0.0
23/09:00pm 15.5 6.8 -0.3 34 6.7 WNW 35 48 19 26 1013.2 1013.2 0.0
23/08:30pm 15.8 8.1 0.0 34 6.8 WNW 30 43 16 23 1013.0 1013.0 0.0
23/08:08pm 16.2 8.5 -0.1 33 7.0 WNW 30 48 16 26 1012.9 1012.9 0.0
23/08:00pm 16.2 8.5 -0.1 33 7.0 WNW 30 41 16 22 1012.9 1012.9 0.0
23/07:41pm 16.3 9.0 0.0 33 7.0 WNW 28 52 15 28 1012.8 1012.8 0.0
23/07:30pm 16.3 9.4 0.0 33 7.0 WNW 26 43 14 23 1012.8 1012.8 0.0
23/07:00pm 16.6 8.5 -0.1 32 7.2 WNW 32 43 17 23 1012.4 1012.5 0.0
23/06:30pm 17.0 9.7 -0.2 31 7.4 W 28 44 15 24 1012.0 1012.1 0.0
23/06:06pm 17.1 9.8 -0.1 31 7.4 WNW 28 46 15 25 1011.8 1011.9 0.0
23/06:00pm 17.5 9.4 -0.2 30 7.7 WNW 32 46 17 25 1011.7 1011.8 0.0
23/05:57pm 17.6 10.3 -0.2 30 7.7 WNW 28 46 15 25 1011.7 1011.8 0.0
23/05:30pm 17.3 11.5 0.0 31 7.5 WNW 20 33 11 18 1011.4 1011.5 0.0
23/05:00pm 18.1 11.2 0.3 30 7.8 WNW 26 37 14 20 1011.0 1011.1 0.0
23/04:30pm 19.1 13.0 0.7 29 8.2 W 22 39 12 21 1010.8 1010.9 0.0
23/04:00pm 19.8 14.3 0.3 27 8.7 WNW 19 28 10 15 1010.4 1010.5 0.0
23/03:30pm 20.1 15.0 0.5 27 8.8 WNW 17 28 9 15 1010.5 1010.6 0.0
23/03:00pm 20.0 13.4 -0.6 25 9.0 WNW 24 33 13 18 1010.7 1010.8 0.0
23/02:30pm 20.4 14.6 -0.3 25 9.2 NW 20 33 11 18 1011.1 1011.2 0.0
23/02:00pm 20.1 14.4 -1.1 24 9.2 NW 19 28 10 15 1011.1 1011.2 0.0
23/01:30pm 20.1 14.2 -1.1 24 9.2 WNW 20 30 11 16 1011.3 1011.4 0.0
23/01:00pm 19.6 13.1 -2.1 23 9.2 NW 22 32 12 17 1011.9 1012.0 0.0
23/12:30pm 19.0 11.0 -2.6 23 9.0 WNW 30 39 16 21 1012.3 1012.4 0.0
23/12:00pm 19.1 11.6 -1.4 25 8.8 WNW 28 41 15 22 1013.1 1013.1 0.0
23/11:30am 18.1 11.9 -2.8 24 8.6 NW 20 33 11 18 1013.9 1013.9 0.0
23/11:00am 17.0 8.9 -3.1 25 8.1 WNW 30 52 16 28 1014.5 1014.5 0.0
23/10:30am 16.5 7.5 -3.0 26 7.9 WNW 35 56 19 30 1014.3 1014.3 0.0
23/10:00am 16.3 6.5 -2.7 27 7.7 WNW 39 57 21 31 1014.5 1014.5 0.0
23/09:30am 15.4 5.5 -3.5 27 7.5 WNW 39 63 21 34 1014.4 1014.4 0.0
23/09:00am 14.8 6.1 -3.0 29 7.1 WNW 33 54 18 29 1014.3 1014.3 0.0
23/08:34am 14.1 5.0 -3.2 30 6.8 WNW 35 54 19 29 1014.4 1014.4 0.0
23/08:30am 13.9 4.1 -3.4 30 6.7 WNW 39 54 21 29 1014.4 1014.4 0.0
23/08:00am 12.8 3.8 -3.0 33 6.1 WNW 35 57 19 31 1014.5 1014.5 0.0
23/07:45am 12.6 4.9 -3.2 33 6.1 WNW 28 48 15 26 1015.0 1015.0 0.0
23/07:30am 12.3 5.0 -2.7 35 5.8 WNW 26 39 14 21 1015.2 1015.2 0.0
23/07:00am 11.7 5.8 -2.5 37 5.5 NW 19 30 10 16 1015.2 1015.2 0.0
23/06:30am 11.2 5.6 -2.9 37 5.4 NW 17 26 9 14 1015.4 1015.4 0.0
23/06:00am 11.3 5.1 -3.2 36 5.5 NW 20 28 11 15 1015.9 1016.0 0.0
23/05:30am 11.7 4.0 -3.2 35 5.7 NW 28 46 15 25 1015.4 1015.4 0.0
23/05:08am 11.6 2.5 -3.3 35 5.7 NW 35 54 19 29 1015.3 1015.3 0.0
23/05:00am 11.9 2.1 -3.1 35 5.8 NW 39 54 21 29 1015.2 1015.2 0.0
23/04:36am 11.4 2.9 -3.1 36 5.5 NW 32 52 17 28 1015.0 1015.0 0.0
23/04:30am 11.2 2.6 -2.9 37 5.4 NW 33 44 18 24 1015.0 1015.0 0.0
23/04:11am 11.1 3.0 -3.0 37 5.4 NW 30 48 16 26 1015.0 1015.0 0.0
23/04:00am 11.1 3.4 -2.7 38 5.3 NW 28 39 15 21 1015.0 1015.0 0.0
23/03:30am 11.1 3.1 -2.7 38 5.3 NW 30 37 16 20 1015.3 1015.3 0.0
23/03:00am 10.8 3.6 -2.2 40 5.0 NW 26 37 14 20 1015.4 1015.4 0.0
23/02:30am 10.9 2.5 -2.5 39 5.2 WNW 32 43 17 23 1015.4 1015.4 0.0
23/02:00am 10.7 1.8 -2.3 40 5.0 WNW 35 48 19 26 1015.5 1015.5 0.0
23/01:30am 11.0 0.5 -2.8 38 5.3 WNW 43 50 23 27 1015.6 1015.6 0.0
23/01:00am 10.8 2.8 -2.6 39 5.1 WNW 30 41 16 22 1015.6 1015.6 0.0
23/12:30am 10.8 2.3 -1.9 41 5.0 WNW 33 43 18 23 1015.8 1015.8 0.0
23/12:00am 10.7 2.4 -1.7 42 4.8 WNW 32 39 17 21 1016.1 1016.2 0.0
 
Date/Time
EST
Temp
°C
App
Temp
°C
Dew
Point
°C
Rel
Hum
%
Delta-T
°C
Wind Press
QNH
hPa
Press
MSL
hPa
Rain since
9am
mm
Dir  Spd
km/h
Gust
km/h
Spd
kts
Gust
kts
22/11:30pm 10.8 3.3 -1.6 42 4.9 NW 28 35 15 19 1016.6 1016.7 0.0
22/11:00pm 10.8 2.6 -1.3 43 4.8 NW 32 41 17 22 1016.6 1016.7 0.0
22/10:30pm 11.2 3.0 -1.2 42 4.9 NW 32 43 17 23 1016.8 1016.9 0.0
22/10:00pm 11.3 3.0 -1.5 41 5.1 NW 32 39 17 21 1016.7 1016.8 0.0
22/09:30pm 10.7 3.1 -2.3 40 5.0 NW 28 37 15 20 1017.0 1017.1 0.0
22/09:00pm 10.6 3.7 -2.8 39 5.1 NW 24 32 13 17 1017.4 1017.5 0.0
22/08:30pm 10.8 3.9 -2.9 38 5.2 NW 24 30 13 16 1017.3 1017.4 0.0
22/08:00pm 11.3 4.3 -3.2 36 5.5 NW 24 32 13 17 1017.1 1017.2 0.0
22/07:30pm 11.4 5.2 -3.1 36 5.5 NW 20 28 11 15 1017.4 1017.5 0.0
22/07:00pm 11.0 5.3 -3.8 35 5.5 NW 17 22 9 12 1017.6 1017.7 0.0
22/06:30pm 12.5 5.4 -4.1 31 6.3 W 24 28 13 15 1017.6 1017.7 0.0
22/06:00pm 12.9 5.0 -5.1 28 6.7 WNW 28 35 15 19 1017.4 1017.5 0.0
22/05:30pm 13.8 6.2 -5.9 25 7.3 WNW 26 37 14 20 1017.3 1017.4 0.0
22/05:00pm 14.7 7.1 -5.6 24 7.6 WNW 26 39 14 21 1017.5 1017.6 0.0
22/04:30pm 15.6 9.3 -5.4 23 8.0 WNW 19 24 10 13 1017.5 1017.6 0.0
22/04:00pm 16.6 9.8 -5.2 22 8.4 WNW 22 30 12 16 1017.3 1017.4 0.0
22/03:30pm 17.0 8.6 -5.5 21 8.7 WNW 30 39 16 21 1017.2 1017.3 0.0
22/03:00pm 17.5 10.6 -5.7 20 8.9 WNW 22 39 12 21 1017.3 1017.4 0.0
22/02:30pm 17.7 10.7 -3.7 23 8.6 WNW 24 33 13 18 1017.7 1017.8 0.0
22/02:00pm 17.7 9.0 -5.5 20 9.0 W 32 48 17 26 1017.8 1017.9 0.0
22/01:51pm 17.4 8.9 -7.1 18 9.2 WNW 30 48 16 26 1018.0 1018.1 0.0
22/01:30pm 17.6 9.5 -7.0 18 9.2 WNW 28 43 15 23 1018.2 1018.3 0.0
22/01:00pm 17.3 9.4 -4.6 22 8.6 WNW 28 43 15 23 1018.6 1018.7 0.0
22/12:30pm 16.7 9.0 -2.9 26 7.9 WNW 28 39 15 21 1019.1 1019.2 0.0
22/12:00pm 16.8 8.4 -2.8 26 7.9 WNW 32 41 17 22 1019.5 1019.6 0.0
22/11:30am 15.3 9.0 -1.3 32 6.9 NW 22 30 12 16 1020.0 1020.1 0.0
22/11:00am 13.7 6.6 -1.1 36 6.0 NW 26 33 14 18 1020.3 1020.4 0.0
22/10:30am 12.7 7.4 -0.9 39 5.5 NW 17 28 9 15 1020.9 1021.0 0.0
22/10:00am 11.1 5.4 -1.0 43 4.8 NNW 19 30 10 16 1021.3 1021.4 0.0
22/09:30am 9.7 2.6 -1.1 47 4.2 NW 26 35 14 19 1021.6 1021.7 0.0
22/09:00am 8.4 1.4 -0.6 53 3.5 NW 26 41 14 22 1021.6 1021.7 0.0
22/08:30am 7.4 0.8 -0.1 59 2.9 NW 24 32 13 17 1021.8 1021.9 0.0
22/08:00am 6.3 0.5 -0.2 63 2.5 NW 20 28 11 15 1022.1 1022.2 0.0
22/07:30am 5.4 -0.2 0.0 68 2.1 NNW 19 24 10 13 1022.4 1022.5 0.0
22/07:00am 4.6 -1.2 0.2 73 1.7 NW 20 26 11 14 1022.4 1022.5 0.0
22/06:30am 5.0 -0.8 0.2 71 1.8 WNW 20 24 11 13 1022.1 1022.2 0.0
22/06:00am 5.4 -0.4 0.0 68 2.1 WNW 20 28 11 15 1022.0 1022.1 0.0
22/05:30am 5.2 -0.5 0.4 71 1.9 NW 20 26 11 14 1021.7 1021.8 0.0
22/05:00am 4.8 -0.9 0.6 74 1.6 NW 20 24 11 13 1021.6 1021.7 0.0
22/04:30am 5.0 -0.6 0.9 75 1.6 NW 20 26 11 14 1021.7 1021.8 0.0
22/04:00am 5.2 -0.4 1.1 75 1.6 NW 20 26 11 14 1021.7 1021.8 0.0
22/03:30am 5.8 0.2 1.3 73 1.8 WNW 20 24 11 13 1021.9 1022.0 0.0
22/03:00am 5.3 -0.3 1.4 76 1.5 WNW 20 26 11 14 1022.0 1022.1 0.0
22/02:30am 5.8 0.5 1.7 75 1.7 WNW 19 24 10 13 1022.0 1022.1 0.0
22/02:00am 5.8 0.3 2.1 77 1.5 WNW 20 24 11 13 1022.2 1022.3 0.0
22/01:30am 5.7 0.5 2.4 79 1.4 WNW 19 20 10 11 1022.4 1022.5 0.0
22/01:00am 5.8 0.6 2.4 79 1.4 WNW 19 22 10 12 1022.6 1022.7 0.0
22/12:30am 5.9 1.2 2.9 81 1.2 WNW 17 20 9 11 1022.6 1022.7 0.0
22/12:00am 5.8 1.1 3.0 82 1.2 WNW 17 20 9 11 1022.9 1022.9 0.0
 
Date/Time
EST
Temp
°C
App
Temp
°C
Dew
Point
°C
Rel
Hum
%
Delta-T
°C
Wind Press
QNH
hPa
Press
MSL
hPa
Rain since
9am
mm
Dir  Spd
km/h
Gust
km/h
Spd
kts
Gust
kts
21/11:30pm 5.9 1.2 3.1 82 1.2 WNW 17 20 9 11 1023.2 1023.2 0.0
21/11:00pm 6.1 1.4 3.3 82 1.2 WNW 17 19 9 10 1023.2 1023.2 0.0
21/10:30pm 5.9 1.6 3.4 84 1.1 WNW 15 19 8 10 1023.1 1023.1 0.0
21/10:00pm 6.3 2.4 3.6 83 1.1 WNW 13 15 7 8 1022.9 1022.9 0.0
21/09:30pm 5.8 2.3 3.3 84 1.0 WNW 11 13 6 7 1022.8 1022.8 0.0
21/09:00pm 5.8 2.6 3.3 84 1.0 WNW 9 13 5 7 1022.6 1022.7 0.0
21/08:30pm 5.6 3.0 3.4 86 0.9 WNW 6 9 3 5 1022.4 1022.5 0.0
21/08:00pm 6.8 4.3 3.8 81 1.3 W 6 9 3 5 1022.5 1022.6 0.0
21/07:30pm 5.2 3.9 4.2 93 0.4 CALM 0 0 0 0 1022.3 1022.4 0.0
21/07:00pm 4.5 0.9 2.7 88 0.7 W 11 11 6 6 1022.2 1022.3 0.0
21/06:30pm 5.4 3.1 2.9 84 1.0 WSW 4 11 2 6 1022.1 1022.2 0.0
21/06:00pm 5.5 4.0 3.0 84 1.0 CALM 0 0 0 0 1021.9 1022.0 0.0
21/05:30pm 7.4 4.8 3.3 75 1.7 SSE 6 7 3 4 1021.7 1021.8 0.0
21/05:00pm 10.7 7.5 2.8 58 3.4 SSE 9 11 5 6 1021.5 1021.6 0.0
21/04:30pm 13.6 9.9 2.5 47 4.9 S 11 13 6 7 1021.3 1021.4 0.0
21/04:00pm 14.4 9.5 2.0 43 5.4 SSW 17 24 9 13 1021.1 1021.2 0.0
21/03:30pm 14.9 10.1 2.8 44 5.5 SSW 17 26 9 14 1020.7 1020.8 0.0
21/03:00pm 15.0 9.9 2.9 44 5.4 S 19 30 10 16 1020.5 1020.6 0.0
21/02:30pm 15.1 9.9 3.3 45 5.4 S 20 28 11 15 1020.4 1020.5 0.0
21/02:00pm 15.0 9.6 2.2 42 5.7 SSW 20 32 11 17 1020.5 1020.6 0.0
21/01:30pm 15.1 9.4 2.6 43 5.6 S 22 32 12 17 1020.5 1020.6 0.0
21/01:00pm 15.7 9.6 2.5 41 5.9 S 24 33 13 18 1020.6 1020.7 0.0
21/12:30pm 15.1 8.9 2.3 42 5.7 SSW 24 32 13 17 1020.9 1021.0 0.0
21/12:00pm 14.9 8.7 2.1 42 5.7 S 24 33 13 18 1021.1 1021.2 0.0
21/11:30am 14.8 8.5 1.3 40 5.9 S 24 37 13 20 1021.4 1021.5 0.0
21/11:00am 14.3 7.6 1.6 42 5.5 SSW 26 35 14 19 1021.5 1021.6 0.0
21/10:30am 14.1 8.2 1.7 43 5.4 SSW 22 32 12 17 1021.5 1021.6 0.0
21/10:00am 13.4 6.9 2.9 49 4.7 SSW 26 35 14 19 1021.4 1021.5 0.0
21/09:30am 12.7 7.9 2.6 50 4.4 SSW 17 26 9 14 1021.3 1021.4 0.0
21/09:00am 9.6 5.8 1.8 58 3.3 NW 11 17 6 9 1021.0 1021.1 0.0
21/08:30am 7.4 2.3 1.0 64 2.6 NW 17 22 9 12 1020.8 1020.9 0.0
21/08:00am 6.0 0.9 0.6 68 2.1 NW 17 24 9 13 1020.5 1020.6 0.0
21/07:30am 4.5 0.8 0.1 73 1.7 NW 9 17 5 9 1020.2 1020.3 0.0
21/07:00am 4.1 -0.4 -0.1 74 1.6 WNW 13 19 7 10 1020.0 1020.1 0.0
21/06:30am 3.7 -0.8 -0.3 75 1.5 WNW 13 17 7 9 1019.7 1019.8 0.0
21/06:00am 4.3 -0.6 -0.3 72 1.7 WNW 15 22 8 12 1019.3 1019.4 0.0
21/05:30am 4.3 -1.0 -0.3 72 1.7 WNW 17 20 9 11 1018.7 1018.8 0.0
21/05:00am 4.0 -0.1 -0.4 73 1.6 NW 11 19 6 10 1018.3 1018.4 0.0

Latest Capital City Observations: Canberra | Sydney | Melbourne | Brisbane | Adelaide | Perth | Hobart | Darwin

Other Formats:

Comma delimited format used in spreadsheet applications
http://www.bom.gov.au/fwo/IDN60903/IDN60903.94750.axf

JavaScript Object Notation format (JSON) in row-major order
http://www.bom.gov.au/fwo/IDN60903/IDN60903.94750.json